createdAt,value
2017-05-23T00:01:02.027Z,16.65
2017-05-23T00:02:13.038Z,16.66
2017-05-23T00:03:24.106Z,16.58
2017-05-23T00:04:35.132Z,16.58
2017-05-23T00:05:46.138Z,16.57
2017-05-23T00:06:57.349Z,16.55
2017-05-23T00:08:08.565Z,16.57
2017-05-23T00:09:19.641Z,16.65
2017-05-23T00:10:30.647Z,16.59
2017-05-23T00:11:41.657Z,16.44
2017-05-23T00:12:52.878Z,16.4
2017-05-23T00:14:03.907Z,16.47
2017-05-23T00:15:15.172Z,16.42
2017-05-23T00:16:26.397Z,16.49
2017-05-23T00:17:37.422Z,16.42
2017-05-23T00:18:48.445Z,16.36
2017-05-23T00:19:59.465Z,16.29
2017-05-23T00:21:10.534Z,16.29
2017-05-23T00:22:21.539Z,16.26
2017-05-23T00:23:32.552Z,16.18
2017-05-23T00:24:43.620Z,16.25
2017-05-23T00:25:54.640Z,16.17
2017-05-23T00:27:05.903Z,16.25
2017-05-23T00:28:17.137Z,16.14
2017-05-23T00:29:28.208Z,16.34
2017-05-23T00:30:39.222Z,16.32
2017-05-23T00:31:50.638Z,16.33
2017-05-23T00:33:01.700Z,16.33
2017-05-23T00:34:12.917Z,16.26
2017-05-23T00:35:23.925Z,16.32
2017-05-23T00:36:34.932Z,16.13
2017-05-23T00:37:45.957Z,16.17
2017-05-23T00:38:57.026Z,16.27
2017-05-23T00:40:08.049Z,16.26
2017-05-23T00:41:19.057Z,16.17
2017-05-23T00:42:30.072Z,16.08
2017-05-23T00:43:41.086Z,16.07
2017-05-23T00:44:52.156Z,16.1
2017-05-23T00:46:03.183Z,16.07
2017-05-23T00:47:14.192Z,16.06
2017-05-23T00:48:25.210Z,16.11
2017-05-23T00:49:36.240Z,15.99
2017-05-23T00:50:47.256Z,16.02
2017-05-23T00:51:58.475Z,15.93
2017-05-23T00:53:09.489Z,16.14
2017-05-23T00:54:20.754Z,16.02
2017-05-23T00:55:31.825Z,15.99
2017-05-23T00:56:43.055Z,16
2017-05-23T00:57:54.073Z,15.88
2017-05-23T00:59:05.085Z,15.95
2017-05-23T01:00:16.098Z,15.88
2017-05-23T01:01:27.174Z,15.84
2017-05-23T01:02:38.389Z,15.89
2017-05-23T01:03:49.398Z,15.84
2017-05-23T01:05:00.413Z,15.86
2017-05-23T01:06:11.631Z,15.83
2017-05-23T01:07:22.689Z,15.84
2017-05-23T01:08:33.919Z,15.92
2017-05-23T01:09:44.923Z,15.91
2017-05-23T01:10:55.940Z,15.83
2017-05-23T01:12:06.960Z,15.84
2017-05-23T01:13:18.031Z,15.86
2017-05-23T01:14:29.029Z,15.84
2017-05-23T01:15:40.048Z,15.81
2017-05-23T01:16:51.059Z,15.77
2017-05-23T01:18:02.071Z,15.67
2017-05-23T01:19:13.155Z,15.6
2017-05-23T01:20:24.172Z,15.63
2017-05-23T01:21:35.182Z,15.59
2017-05-23T01:22:46.196Z,15.62
2017-05-23T01:23:57.425Z,15.6
2017-05-23T01:25:08.499Z,15.53
2017-05-23T01:26:19.713Z,15.49
2017-05-23T01:27:30.726Z,15.43
2017-05-23T01:28:41.747Z,15.53
2017-05-23T01:29:52.824Z,15.41
2017-05-23T01:31:03.892Z,15.56
2017-05-23T01:32:14.901Z,15.58
2017-05-23T01:33:26.119Z,15.58
2017-05-23T01:34:37.143Z,15.44
2017-05-23T01:35:48.154Z,15.4
2017-05-23T01:36:59.206Z,15.25
2017-05-23T01:38:10.226Z,15.26
2017-05-23T01:39:21.229Z,15.25
2017-05-23T01:40:32.650Z,15.23
2017-05-23T01:41:43.863Z,15.25
2017-05-23T01:42:54.931Z,15.19
2017-05-23T01:44:06.001Z,15.27
2017-05-23T01:45:17.221Z,15.3
2017-05-23T01:46:28.253Z,15.23
2017-05-23T01:47:39.273Z,15.23
2017-05-23T01:48:50.348Z,15.19
2017-05-23T01:50:01.368Z,15.16
2017-05-23T01:51:12.386Z,15.19
2017-05-23T01:52:23.403Z,15.15
2017-05-23T01:53:34.416Z,15.13
2017-05-23T01:54:45.482Z,15.07
2017-05-23T01:55:56.485Z,15.15
2017-05-23T01:57:07.510Z,14.97
2017-05-23T01:58:18.534Z,14.97
2017-05-23T01:59:29.542Z,14.98
2017-05-23T02:00:40.560Z,14.87
2017-05-23T02:01:51.578Z,14.93
2017-05-23T02:03:02.592Z,14.93
2017-05-23T02:04:13.604Z,14.93
2017-05-23T02:05:24.664Z,14.98
2017-05-23T02:06:35.878Z,14.94
2017-05-23T02:07:46.894Z,14.98
2017-05-23T02:08:57.904Z,14.87
2017-05-23T02:10:08.916Z,14.83
2017-05-23T02:11:20.186Z,14.74
2017-05-23T02:12:31.406Z,14.79
2017-05-23T02:13:42.425Z,14.79
2017-05-23T02:14:53.447Z,14.8
2017-05-23T02:16:04.468Z,14.75
2017-05-23T02:17:15.524Z,14.63
2017-05-23T02:18:26.535Z,14.64
2017-05-23T02:19:37.555Z,14.67
2017-05-23T02:20:48.568Z,14.69
2017-05-23T02:21:59.590Z,14.61
2017-05-23T02:23:10.873Z,14.75
2017-05-23T02:24:21.898Z,14.79
2017-05-23T02:25:32.937Z,14.79
2017-05-23T02:26:44.162Z,14.85
2017-05-23T02:27:55.196Z,14.85
2017-05-23T02:29:06.267Z,14.82
2017-05-23T02:30:17.484Z,14.82
2017-05-23T02:31:28.703Z,14.83
2017-05-23T02:32:39.724Z,14.89
2017-05-23T02:33:50.933Z,14.94
2017-05-23T02:35:01.985Z,14.83
2017-05-23T02:36:13.202Z,14.7
2017-05-23T02:37:24.215Z,14.77
2017-05-23T02:38:35.237Z,14.64
2017-05-23T02:39:46.453Z,14.63
2017-05-23T02:40:57.464Z,14.56
2017-05-23T02:42:08.681Z,14.79
2017-05-23T02:43:19.693Z,14.79
2017-05-23T02:44:30.709Z,14.7
2017-05-23T02:45:41.775Z,14.67
2017-05-23T02:46:52.997Z,14.59
2017-05-23T02:48:04.001Z,14.71
2017-05-23T02:49:15.023Z,14.64
2017-05-23T02:50:26.037Z,14.7
2017-05-23T02:51:37.111Z,14.64
2017-05-23T02:52:48.329Z,14.71
2017-05-23T02:53:59.348Z,14.67
2017-05-23T02:55:10.561Z,14.67
2017-05-23T02:56:21.571Z,14.66
2017-05-23T02:57:32.632Z,14.74
2017-05-23T02:58:43.645Z,14.66
2017-05-23T02:59:54.648Z,14.61
2017-05-23T03:01:05.861Z,14.56
2017-05-23T03:02:16.934Z,14.52
2017-05-23T03:03:28.003Z,14.59
2017-05-23T03:04:39.013Z,14.56
2017-05-23T03:05:50.031Z,14.45
2017-05-23T03:07:01.036Z,14.49
2017-05-23T03:08:12.063Z,14.39
2017-05-23T03:09:23.115Z,14.39
2017-05-23T03:10:34.112Z,14.42
2017-05-23T03:11:45.131Z,14.34
2017-05-23T03:12:56.144Z,14.3
2017-05-23T03:14:07.155Z,14.24
2017-05-23T03:15:18.209Z,14.3
2017-05-23T03:16:29.282Z,14.21
2017-05-23T03:17:40.286Z,14.2
2017-05-23T03:18:51.293Z,14.23
2017-05-23T03:20:02.718Z,14.23
2017-05-23T03:21:13.986Z,14.23
2017-05-23T03:22:24.999Z,14.2
2017-05-23T03:23:36.005Z,14.13
2017-05-23T03:24:47.029Z,14.19
2017-05-23T03:25:58.032Z,14.16
2017-05-23T03:27:09.299Z,14.09
2017-05-23T03:28:20.315Z,14.06
2017-05-23T03:29:31.332Z,13.97
2017-05-23T03:30:42.345Z,14.01
2017-05-23T03:31:53.560Z,14.06
2017-05-23T03:33:04.634Z,14.01
2017-05-23T03:34:15.857Z,14.01
2017-05-23T03:35:26.878Z,13.99
2017-05-23T03:36:37.887Z,14.06
2017-05-23T03:37:49.102Z,14.01
2017-05-23T03:39:00.161Z,14.01
2017-05-23T03:40:11.163Z,14.05
2017-05-23T03:41:22.233Z,14.09
2017-05-23T03:42:33.256Z,14.11
2017-05-23T03:43:44.260Z,14.03
2017-05-23T03:44:55.530Z,13.99
2017-05-23T03:46:06.753Z,14.03
2017-05-23T03:47:17.766Z,14.08
2017-05-23T03:48:29.054Z,14.06
2017-05-23T03:49:40.080Z,14.08
2017-05-23T03:50:51.308Z,14.11
2017-05-23T03:52:02.324Z,14.06
2017-05-23T03:53:13.323Z,13.97
2017-05-23T03:54:24.346Z,13.99
2017-05-23T03:55:35.407Z,13.97
2017-05-23T03:56:46.616Z,13.95
2017-05-23T03:57:57.832Z,13.93
2017-05-23T03:59:08.836Z,13.9
2017-05-23T04:00:19.844Z,13.91
2017-05-23T04:01:30.913Z,13.88
2017-05-23T04:02:41.922Z,13.88
2017-05-23T04:03:52.934Z,13.97
2017-05-23T04:05:04.157Z,14.09
2017-05-23T04:06:15.180Z,13.88
2017-05-23T04:07:26.237Z,13.91
2017-05-23T04:08:37.250Z,13.9
2017-05-23T04:09:48.275Z,13.91
2017-05-23T04:10:59.285Z,13.94
2017-05-23T04:12:10.557Z,13.93
2017-05-23T04:13:21.626Z,13.91
2017-05-23T04:14:32.651Z,13.99
2017-05-23T04:15:43.865Z,13.99
2017-05-23T04:16:54.891Z,14.02
2017-05-23T04:18:06.108Z,14.06
2017-05-23T04:19:17.188Z,14.13
2017-05-23T04:20:28.184Z,14.19
2017-05-23T04:21:39.191Z,14.42
2017-05-23T04:22:50.193Z,14.44
2017-05-23T04:24:01.394Z,14.53
2017-05-23T04:25:12.656Z,14.6
2017-05-23T04:26:23.682Z,14.51
2017-05-23T04:27:34.696Z,14.53
2017-05-23T04:28:45.907Z,14.7
2017-05-23T04:29:56.911Z,15.08
2017-05-23T04:31:08.024Z,15.25
2017-05-23T04:32:19.237Z,15.44
2017-05-23T04:33:30.260Z,15.73
2017-05-23T04:34:41.540Z,15.89
2017-05-23T04:35:52.561Z,16.06
2017-05-23T04:37:03.625Z,16.27
2017-05-23T04:38:14.864Z,16.55
2017-05-23T04:39:25.885Z,16.77
2017-05-23T04:40:36.905Z,16.84
2017-05-23T04:41:47.921Z,17.02
2017-05-23T04:42:58.976Z,17.17
2017-05-23T04:44:10.000Z,17.28
2017-05-23T04:45:21.217Z,17.28
2017-05-23T04:46:32.440Z,17.24
2017-05-23T04:47:43.453Z,17.25
2017-05-23T04:48:54.518Z,17.3
2017-05-23T04:50:05.550Z,17.31
2017-05-23T04:51:16.552Z,17.47
2017-05-23T04:52:27.560Z,17.49
2017-05-23T04:53:38.791Z,17.73
2017-05-23T04:54:50.072Z,17.86
2017-05-23T04:56:01.088Z,17.99
2017-05-23T04:57:12.103Z,18.19
2017-05-23T04:58:23.111Z,18.35
2017-05-23T04:59:34.125Z,18.42
2017-05-23T05:00:45.142Z,18.61
2017-05-23T05:01:56.177Z,18.74
2017-05-23T05:03:07.188Z,18.89
2017-05-23T05:04:18.210Z,18.96
2017-05-23T05:05:29.285Z,19.02
2017-05-23T05:06:40.292Z,19.07
2017-05-23T05:07:51.323Z,19.06
2017-05-23T05:09:02.338Z,19.09
2017-05-23T05:10:13.568Z,19.09
2017-05-23T05:11:24.631Z,18.97
2017-05-23T05:12:35.651Z,18.87
2017-05-23T05:13:46.681Z,18.81
2017-05-23T05:14:57.906Z,18.72
2017-05-23T05:16:08.932Z,18.57
2017-05-23T05:17:20.005Z,18.51
2017-05-23T05:18:31.020Z,18.42
2017-05-23T05:19:42.041Z,18.49
2017-05-23T05:20:53.056Z,18.45
2017-05-23T05:22:04.128Z,18.36
2017-05-23T05:23:15.199Z,18.49
2017-05-23T05:24:26.425Z,18.32
2017-05-23T05:25:37.433Z,18.16
2017-05-23T05:26:48.449Z,18.16
2017-05-23T05:27:59.472Z,18.14
2017-05-23T05:29:10.539Z,18.14
2017-05-23T05:30:21.556Z,18.05
2017-05-23T05:31:32.984Z,18.1
2017-05-23T05:32:44.011Z,18.11
2017-05-23T05:33:55.034Z,18.11
2017-05-23T05:35:06.100Z,18.11
2017-05-23T05:36:17.145Z,18.11
2017-05-23T05:37:28.219Z,18.13
2017-05-23T05:38:39.246Z,18.19
2017-05-23T05:39:50.267Z,18.34
2017-05-23T05:41:01.490Z,18.49
2017-05-23T05:42:12.500Z,18.54
2017-05-23T05:43:23.527Z,18.59
2017-05-23T05:44:34.541Z,18.71
2017-05-23T05:45:45.616Z,18.76
2017-05-23T05:46:56.634Z,18.81
2017-05-23T05:48:07.720Z,18.82
2017-05-23T05:49:18.745Z,18.86
2017-05-23T05:50:29.769Z,18.97
2017-05-23T05:51:41.043Z,18.97
2017-05-23T05:52:52.066Z,18.97
2017-05-23T05:54:03.094Z,18.96
2017-05-23T05:55:14.111Z,18.86
2017-05-23T05:56:25.127Z,18.79
2017-05-23T05:57:36.598Z,18.97
2017-05-23T05:58:47.631Z,19.09
2017-05-23T05:59:58.646Z,19.35
2017-05-23T06:01:09.871Z,19.57
2017-05-23T06:02:21.293Z,19.68
2017-05-23T06:03:32.367Z,19.78
2017-05-23T06:04:43.390Z,19.75
2017-05-23T06:05:54.409Z,19.9
2017-05-23T06:07:05.629Z,20.22
2017-05-23T06:08:16.659Z,20.46
2017-05-23T06:09:27.729Z,20.54
2017-05-23T06:10:38.948Z,20.46
2017-05-23T06:11:49.962Z,20.56
2017-05-23T06:13:00.990Z,20.51
2017-05-23T06:14:12.015Z,20.53
2017-05-23T06:15:23.097Z,20.4
2017-05-23T06:16:34.187Z,20.44
2017-05-23T06:17:45.283Z,20.68
2017-05-23T06:18:56.322Z,20.93
2017-05-23T06:20:07.341Z,21.28
2017-05-23T06:21:18.410Z,21.61
2017-05-23T06:22:29.426Z,21.86
2017-05-23T06:23:40.456Z,22.05
2017-05-23T06:24:51.496Z,22.31
2017-05-23T06:26:02.531Z,22.61
2017-05-23T06:27:13.802Z,22.78
2017-05-23T06:28:24.832Z,22.99
2017-05-23T06:29:35.861Z,23.18
2017-05-23T06:30:47.094Z,23.12
2017-05-23T06:31:58.121Z,23.16
2017-05-23T06:33:09.203Z,23.25
2017-05-23T06:34:20.432Z,23.56
2017-05-23T06:35:31.680Z,23.63
2017-05-23T06:36:42.902Z,23.9
2017-05-23T06:37:53.920Z,24.02
2017-05-23T06:39:05.014Z,24.37
2017-05-23T06:40:16.088Z,24.67
2017-05-23T06:41:27.114Z,24.89
2017-05-23T06:42:38.147Z,25.05
2017-05-23T06:43:49.175Z,25.19
2017-05-23T06:45:00.452Z,25.15
2017-05-23T06:46:11.473Z,25.2
2017-05-23T06:47:22.703Z,25.32
2017-05-23T06:48:33.733Z,25.3
2017-05-23T06:49:44.763Z,25.3
2017-05-23T06:50:55.788Z,25.29
2017-05-23T06:52:06.809Z,25.32
2017-05-23T06:53:17.842Z,25.32
2017-05-23T06:54:28.881Z,25.42
2017-05-23T06:55:39.961Z,25.63
2017-05-23T06:56:50.991Z,25.84
2017-05-23T06:58:02.234Z,25.86
2017-05-23T06:59:13.286Z,25.85
2017-05-23T07:00:24.306Z,25.59
2017-05-23T07:01:35.384Z,25.34
2017-05-23T07:02:46.421Z,25.19
2017-05-23T07:03:57.448Z,25.38
2017-05-23T07:05:08.480Z,25.57
2017-05-23T07:06:19.505Z,25.78
2017-05-23T07:07:30.587Z,25.89
2017-05-23T07:08:41.625Z,26.07
2017-05-23T07:09:53.642Z,26.31
2017-05-23T07:11:07.872Z,26.45
2017-05-23T07:12:21.289Z,26.69
2017-05-23T07:13:35.456Z,26.79
2017-05-23T07:14:47.476Z,26.71
2017-05-23T07:16:00.414Z,26.47
2017-05-23T07:17:11.882Z,26.24
2017-05-23T07:18:23.904Z,26.19
2017-05-23T07:19:35.138Z,26.19
2017-05-23T07:20:46.380Z,26.31
2017-05-23T07:21:57.805Z,26.24
2017-05-23T07:23:08.834Z,26.31
2017-05-23T07:24:19.916Z,26.35
2017-05-23T07:25:32.218Z,26.44
2017-05-23T07:26:43.928Z,26.27
2017-05-23T07:27:54.953Z,26.03
2017-05-23T07:29:05.976Z,25.81
2017-05-23T07:30:17.195Z,25.59
2017-05-23T07:31:28.221Z,25.51
2017-05-23T07:32:39.261Z,25.33
2017-05-23T07:33:50.518Z,25.37
2017-05-23T07:35:01.547Z,25.52
2017-05-23T07:36:12.638Z,25.96
2017-05-23T07:37:23.867Z,26.2
2017-05-23T07:38:34.895Z,26.26
2017-05-23T07:39:45.937Z,26.49
2017-05-23T07:40:57.017Z,26.47
2017-05-23T07:42:08.036Z,26.54
2017-05-23T07:43:19.065Z,26.38
2017-05-23T07:44:30.101Z,26.45
2017-05-23T07:45:41.327Z,26.72
2017-05-23T07:46:52.394Z,26.79
2017-05-23T07:48:03.436Z,26.84
2017-05-23T07:49:14.463Z,26.91
2017-05-23T07:50:25.505Z,26.72
2017-05-23T07:51:36.747Z,26.89
2017-05-23T07:52:47.830Z,26.91
2017-05-23T07:53:58.860Z,26.91
2017-05-23T07:55:09.895Z,26.94
2017-05-23T07:56:21.130Z,26.99
2017-05-23T07:57:32.167Z,27.11
2017-05-23T07:58:43.260Z,27.12
2017-05-23T07:59:54.297Z,26.89
2017-05-23T08:01:05.327Z,26.87
2017-05-23T08:02:16.362Z,26.69
2017-05-23T08:03:27.382Z,26.57
2017-05-23T08:04:38.490Z,26.47
2017-05-23T08:05:49.521Z,26.72
2017-05-23T08:07:00.546Z,26.97
2017-05-23T08:08:11.565Z,27.19
2017-05-23T08:09:22.596Z,27.27
2017-05-23T08:10:33.614Z,27.3
2017-05-23T08:11:45.174Z,27.41
2017-05-23T08:12:57.027Z,27.33
2017-05-23T08:14:08.631Z,27.43
2017-05-23T08:15:19.705Z,27.48
2017-05-23T08:16:30.929Z,27.62
2017-05-23T08:17:42.167Z,27.72
2017-05-23T08:18:53.219Z,27.79
2017-05-23T08:20:04.452Z,28.11
2017-05-23T08:21:15.535Z,28.28
2017-05-23T08:22:26.570Z,28.27
2017-05-23T08:23:37.600Z,28.49
2017-05-23T08:24:48.641Z,28.78
2017-05-23T08:25:59.671Z,28.82
2017-05-23T08:27:10.746Z,28.8
2017-05-23T08:28:21.785Z,28.85
2017-05-23T08:29:32.818Z,28.95
2017-05-23T08:30:43.848Z,29.05
2017-05-23T08:31:54.875Z,29.2
2017-05-23T08:33:05.946Z,29.1
2017-05-23T08:34:16.979Z,29.15
2017-05-23T08:35:28.198Z,29.15
2017-05-23T08:36:39.222Z,28.97
2017-05-23T08:37:50.320Z,28.82
2017-05-23T08:39:01.470Z,28.94
2017-05-23T08:40:12.536Z,28.91
2017-05-23T08:41:23.757Z,28.85
2017-05-23T08:42:34.804Z,28.78
2017-05-23T08:43:45.848Z,28.86
2017-05-23T08:44:56.935Z,28.82
2017-05-23T08:46:07.975Z,28.8
2017-05-23T08:47:18.996Z,28.85
2017-05-23T08:48:30.226Z,28.92
2017-05-23T08:49:41.258Z,29.03
2017-05-23T08:50:52.285Z,29.18
2017-05-23T08:52:03.303Z,29.45
2017-05-23T08:53:14.329Z,29.5
2017-05-23T08:54:25.368Z,29.57
2017-05-23T08:55:36.463Z,29.75
2017-05-23T08:56:47.504Z,29.88
2017-05-23T08:57:58.539Z,29.67
2017-05-23T08:59:09.580Z,29.66
2017-05-23T09:00:20.617Z,29.79
2017-05-23T09:01:31.701Z,29.73
2017-05-23T09:02:42.941Z,29.76
2017-05-23T09:03:54.372Z,29.89
2017-05-23T09:05:05.399Z,29.95
2017-05-23T09:06:16.435Z,29.92
2017-05-23T09:07:27.507Z,29.97
2017-05-23T09:08:38.737Z,29.88
2017-05-23T09:09:49.974Z,29.91
2017-05-23T09:11:01.215Z,29.85
2017-05-23T09:12:12.266Z,29.79
2017-05-23T09:13:23.345Z,29.77
2017-05-23T09:14:34.783Z,29.85
2017-05-23T09:15:45.818Z,29.73
2017-05-23T09:16:56.919Z,29.65
2017-05-23T09:18:08.146Z,29.7
2017-05-23T09:19:19.233Z,29.51
2017-05-23T09:20:30.275Z,29.43
2017-05-23T09:21:41.312Z,29.42
2017-05-23T09:22:52.340Z,29.5
2017-05-23T09:24:03.415Z,29.24
2017-05-23T09:25:14.498Z,29.1
2017-05-23T09:26:25.541Z,28.73
2017-05-23T09:27:36.576Z,28.85
2017-05-23T09:28:47.609Z,29.1
2017-05-23T09:29:58.636Z,29.23
2017-05-23T09:31:09.709Z,29.21
2017-05-23T09:32:21.009Z,29.06
2017-05-23T09:33:32.032Z,29.03
2017-05-23T09:34:43.266Z,28.98
2017-05-23T09:35:54.297Z,28.91
2017-05-23T09:37:05.384Z,28.94
2017-05-23T09:38:16.427Z,28.82
2017-05-23T09:39:27.672Z,28.82
2017-05-23T09:40:38.914Z,28.97
2017-05-23T09:41:50.141Z,28.8
2017-05-23T09:43:01.218Z,28.79
2017-05-23T09:44:12.259Z,28.95
2017-05-23T09:45:23.285Z,29.06
2017-05-23T09:46:34.305Z,29.23
2017-05-23T09:47:45.344Z,29.36
2017-05-23T09:48:56.430Z,29.58
2017-05-23T09:50:07.459Z,29.73
2017-05-23T09:51:18.496Z,29.63
2017-05-23T09:52:29.929Z,29.5
2017-05-23T09:53:40.971Z,29.43
2017-05-23T09:54:52.058Z,29.3
2017-05-23T09:56:03.084Z,29.33
2017-05-23T09:57:14.119Z,29.29
2017-05-23T09:58:25.151Z,29.11
2017-05-23T09:59:36.394Z,29.05
2017-05-23T10:00:47.431Z,29.05
2017-05-23T10:01:58.661Z,28.98
2017-05-23T10:03:09.689Z,29.03
2017-05-23T10:04:20.716Z,29.08
2017-05-23T10:05:32.001Z,29.13
2017-05-23T10:06:43.034Z,29.1
2017-05-23T10:07:54.077Z,28.86
2017-05-23T10:09:05.107Z,28.86
2017-05-23T10:10:16.146Z,28.85
2017-05-23T10:11:27.301Z,28.86
2017-05-23T10:12:38.532Z,28.91
2017-05-23T10:13:49.776Z,29.05
2017-05-23T10:15:00.805Z,29.1
2017-05-23T10:16:11.841Z,29.13
2017-05-23T10:17:22.931Z,29.3
2017-05-23T10:18:33.961Z,29.43
2017-05-23T10:19:44.988Z,29.5
2017-05-23T10:20:56.092Z,29.52
2017-05-23T10:22:07.121Z,29.69
2017-05-23T10:23:18.194Z,29.61
2017-05-23T10:24:29.224Z,29.39
2017-05-23T10:25:40.250Z,29.05
2017-05-23T10:26:51.284Z,29.06
2017-05-23T10:28:02.311Z,29.11
2017-05-23T10:29:13.393Z,29.23
2017-05-23T10:30:24.414Z,29.17
2017-05-23T10:31:35.440Z,28.79
2017-05-23T10:32:46.466Z,28.91
2017-05-23T10:33:58.145Z,29.08
2017-05-23T10:35:10.060Z,29.15
2017-05-23T10:36:21.297Z,29.1
2017-05-23T10:37:32.316Z,29.17
2017-05-23T10:38:43.351Z,29.4
2017-05-23T10:39:54.386Z,29.63
2017-05-23T10:41:05.496Z,29.67
2017-05-23T10:42:16.523Z,29.52
2017-05-23T10:43:27.555Z,29.5
2017-05-23T10:44:38.597Z,29.48
2017-05-23T10:45:49.632Z,29.51
2017-05-23T10:47:00.921Z,29.58
2017-05-23T10:48:11.937Z,29.5
2017-05-23T10:49:22.966Z,29.23
2017-05-23T10:50:34.188Z,29.24
2017-05-23T10:51:45.203Z,29.29
2017-05-23T10:52:56.291Z,29.39
2017-05-23T10:54:07.520Z,29.52
2017-05-23T10:55:18.537Z,29.67
2017-05-23T10:56:29.767Z,29.63
2017-05-23T10:57:40.799Z,29.66
2017-05-23T10:58:51.893Z,29.45
2017-05-23T11:00:02.913Z,29.47
2017-05-23T11:01:13.934Z,29.61
2017-05-23T11:02:24.966Z,29.69
2017-05-23T11:03:35.988Z,29.79
2017-05-23T11:04:47.068Z,29.42
2017-05-23T11:05:58.109Z,29.14
2017-05-23T11:07:09.138Z,29.26
2017-05-23T11:08:20.165Z,29.36
2017-05-23T11:09:31.192Z,29.32
2017-05-23T11:10:42.214Z,29.55
2017-05-23T11:11:53.251Z,29.54
2017-05-23T11:13:04.286Z,29.65
2017-05-23T11:14:15.304Z,29.67
2017-05-23T11:15:26.387Z,29.73
2017-05-23T11:16:37.415Z,29.55
2017-05-23T11:17:48.516Z,29.52
2017-05-23T11:18:59.546Z,29.6
2017-05-23T11:20:10.585Z,29.61
2017-05-23T11:21:21.663Z,29.33
2017-05-23T11:22:32.894Z,29.28
2017-05-23T11:23:43.913Z,29.24
2017-05-23T11:24:54.939Z,29.36
2017-05-23T11:26:05.983Z,29.51
2017-05-23T11:27:17.065Z,29.48
2017-05-23T11:28:28.108Z,29.4
2017-05-23T11:29:39.194Z,29.47
2017-05-23T11:30:50.232Z,29.54
2017-05-23T11:32:01.256Z,29.45
2017-05-23T11:33:12.536Z,29.48
2017-05-23T11:34:23.834Z,29.54
2017-05-23T11:35:34.870Z,29.55
2017-05-23T11:36:45.901Z,29.36
2017-05-23T11:37:56.929Z,29.2
2017-05-23T11:39:08.007Z,29.11
2017-05-23T11:40:19.053Z,29.14
2017-05-23T11:41:30.086Z,29.13
2017-05-23T11:42:41.116Z,29.26
2017-05-23T11:43:52.140Z,29.23
2017-05-23T11:45:03.434Z,29.36
2017-05-23T11:46:14.673Z,29.5
2017-05-23T11:47:25.697Z,29.61
2017-05-23T11:48:36.728Z,29.7
2017-05-23T11:49:47.962Z,29.76
2017-05-23T11:50:58.989Z,29.47
2017-05-23T11:52:10.016Z,29.4
2017-05-23T11:53:21.042Z,29.47
2017-05-23T11:54:32.078Z,29.51
2017-05-23T11:55:43.158Z,29.32
2017-05-23T11:56:54.169Z,29.45
2017-05-23T11:58:05.201Z,29.43
2017-05-23T11:59:16.233Z,29.29
2017-05-23T12:00:27.279Z,29.24
2017-05-23T12:01:38.349Z,29.15
2017-05-23T12:02:49.375Z,29.2
2017-05-23T12:04:00.597Z,29.24
2017-05-23T12:05:11.827Z,29.32
2017-05-23T12:06:22.842Z,29.45
2017-05-23T12:07:33.910Z,29.61
2017-05-23T12:08:44.929Z,29.7
2017-05-23T12:09:55.961Z,29.81
2017-05-23T12:11:07.206Z,29.98
2017-05-23T12:12:18.440Z,30.03
2017-05-23T12:13:29.523Z,30.21
2017-05-23T12:14:40.546Z,30.22
2017-05-23T12:15:51.573Z,30.26
2017-05-23T12:17:02.808Z,30.11
2017-05-23T12:18:13.833Z,30.02
2017-05-23T12:19:24.909Z,29.87
2017-05-23T12:20:36.146Z,29.85
2017-05-23T12:21:47.172Z,29.48
2017-05-23T12:22:58.188Z,29.17
2017-05-23T12:24:09.207Z,29.03
2017-05-23T12:25:20.336Z,28.92
2017-05-23T12:26:31.722Z,28.65
2017-05-23T12:27:42.768Z,28.63
2017-05-23T12:28:53.858Z,28.57
2017-05-23T12:30:04.887Z,28.49
2017-05-23T12:31:15.972Z,28.38
2017-05-23T12:32:27.203Z,28.45
2017-05-23T12:33:38.247Z,28.28
2017-05-23T12:34:49.283Z,28.28
2017-05-23T12:36:01.222Z,28.35
2017-05-23T12:37:12.840Z,28.3
2017-05-23T12:38:23.921Z,28.46
2017-05-23T12:39:35.184Z,28.54
2017-05-23T12:40:46.424Z,28.57
2017-05-23T12:41:57.444Z,28.58
2017-05-23T12:43:08.524Z,28.68
2017-05-23T12:44:19.569Z,28.72
2017-05-23T12:45:30.808Z,28.53
2017-05-23T12:46:41.897Z,28.45
2017-05-23T12:47:52.930Z,28.51
2017-05-23T12:49:04.143Z,28.38
2017-05-23T12:50:15.187Z,28.33
2017-05-23T12:51:26.214Z,28.31
2017-05-23T12:52:37.247Z,28.36
2017-05-23T12:53:48.264Z,28.54
2017-05-23T12:54:59.335Z,28.7
2017-05-23T12:56:10.567Z,28.76
2017-05-23T12:57:21.597Z,28.85
2017-05-23T12:58:32.679Z,28.83
2017-05-23T12:59:43.727Z,28.86
2017-05-23T13:00:54.951Z,28.94
2017-05-23T13:02:05.966Z,29.03
2017-05-23T13:03:17.306Z,29.14
2017-05-23T13:04:28.340Z,29.02
2017-05-23T13:05:39.413Z,29.14
2017-05-23T13:06:50.433Z,29.11
2017-05-23T13:08:01.653Z,29.14
2017-05-23T13:09:12.697Z,29.15
2017-05-23T13:10:23.930Z,29.03
2017-05-23T13:11:35.038Z,28.92
2017-05-23T13:12:46.918Z,28.65
2017-05-23T13:13:59.584Z,28.57
2017-05-23T13:15:12.123Z,28.39
2017-05-23T13:16:23.156Z,28.2
2017-05-23T13:17:34.222Z,27.93
2017-05-23T13:18:45.263Z,27.93
2017-05-23T13:19:57.207Z,27.9
2017-05-23T13:21:09.041Z,27.89
2017-05-23T13:22:20.105Z,27.93
2017-05-23T13:23:31.393Z,28.02
2017-05-23T13:24:42.425Z,28.06
2017-05-23T13:25:53.656Z,28.12
2017-05-23T13:27:04.688Z,28.06
2017-05-23T13:28:15.972Z,28.09
2017-05-23T13:29:27.056Z,28.06
2017-05-23T13:30:38.124Z,27.98
2017-05-23T13:31:49.192Z,27.93
2017-05-23T13:33:00.227Z,28.23
2017-05-23T13:34:11.268Z,28.28
2017-05-23T13:35:22.340Z,28.17
2017-05-23T13:36:33.370Z,28.28
2017-05-23T13:37:44.841Z,28.14
2017-05-23T13:38:55.873Z,28.35
2017-05-23T13:40:06.892Z,28.3
2017-05-23T13:41:18.012Z,28.17
2017-05-23T13:42:29.033Z,28.16
2017-05-23T13:43:40.097Z,28.23
2017-05-23T13:44:51.121Z,28.2
2017-05-23T13:46:02.150Z,28.23
2017-05-23T13:47:13.230Z,28.18
2017-05-23T13:48:25.412Z,28.21
2017-05-23T13:49:36.451Z,28.17
2017-05-23T13:50:47.482Z,28.17
2017-05-23T13:51:58.498Z,28.12
2017-05-23T13:53:09.784Z,27.96
2017-05-23T13:54:20.819Z,27.93
2017-05-23T13:55:31.860Z,27.8
2017-05-23T13:56:42.896Z,27.93
2017-05-23T13:57:54.118Z,27.93
2017-05-23T13:59:05.207Z,27.93
2017-05-23T14:00:16.235Z,28.05
2017-05-23T14:01:27.668Z,28.01
2017-05-23T14:02:38.686Z,27.98
2017-05-23T14:03:49.705Z,28.06
2017-05-23T14:05:00.785Z,27.91
2017-05-23T14:06:11.808Z,27.86
2017-05-23T14:07:22.857Z,27.75
2017-05-23T14:08:33.877Z,27.65
2017-05-23T14:09:45.110Z,27.64
2017-05-23T14:10:56.182Z,27.57
2017-05-23T14:12:07.205Z,27.45
2017-05-23T14:13:18.252Z,27.57
2017-05-23T14:14:29.269Z,27.57
2017-05-23T14:15:40.500Z,27.51
2017-05-23T14:16:51.570Z,27.46
2017-05-23T14:18:02.625Z,27.33
2017-05-23T14:19:13.663Z,27.18
2017-05-23T14:20:24.690Z,27.06
2017-05-23T14:21:35.710Z,26.9
2017-05-23T14:22:46.792Z,26.72
2017-05-23T14:23:57.829Z,26.57
2017-05-23T14:25:08.838Z,26.41
2017-05-23T14:26:20.056Z,26.2
2017-05-23T14:27:31.094Z,26.17
2017-05-23T14:28:42.163Z,26.04
2017-05-23T14:29:53.187Z,25.89
2017-05-23T14:31:04.264Z,25.82
2017-05-23T14:32:15.291Z,25.67
2017-05-23T14:33:26.342Z,25.75
2017-05-23T14:34:37.418Z,25.59
2017-05-23T14:35:48.442Z,25.6
2017-05-23T14:36:59.489Z,25.81
2017-05-23T14:38:10.516Z,25.94
2017-05-23T14:39:21.536Z,26.04
2017-05-23T14:40:32.615Z,26.39
2017-05-23T14:41:43.647Z,26.32
2017-05-23T14:42:54.666Z,26.34
2017-05-23T14:44:05.894Z,26.45
2017-05-23T14:45:16.910Z,26.38
2017-05-23T14:46:27.982Z,26.2
2017-05-23T14:47:39.007Z,26.09
2017-05-23T14:48:50.063Z,26.19
2017-05-23T14:50:01.079Z,26.19
2017-05-23T14:51:12.298Z,26.34
2017-05-23T14:52:23.368Z,26.31
2017-05-23T14:53:34.852Z,26.45
2017-05-23T14:54:45.876Z,26.64
2017-05-23T14:55:56.892Z,26.67
2017-05-23T14:57:08.018Z,26.61
2017-05-23T14:58:19.350Z,26.74
2017-05-23T14:59:30.385Z,26.6
2017-05-23T15:00:41.415Z,26.53
2017-05-23T15:01:52.644Z,26.45
2017-05-23T15:03:03.872Z,26.45
2017-05-23T15:04:14.956Z,26.37
2017-05-23T15:05:26.030Z,26.17
2017-05-23T15:06:37.052Z,25.94
2017-05-23T15:07:48.207Z,25.85
2017-05-23T15:08:59.236Z,25.79
2017-05-23T15:10:10.309Z,25.69
2017-05-23T15:11:21.725Z,25.86
2017-05-23T15:12:32.800Z,25.81
2017-05-23T15:13:44.234Z,25.82
2017-05-23T15:14:55.293Z,25.81
2017-05-23T15:16:06.588Z,25.86
2017-05-23T15:17:17.614Z,25.67
2017-05-23T15:18:28.673Z,25.6
2017-05-23T15:19:39.699Z,25.63